sensor_id;sensor_type;location;lat;lon;timestamp;pressure;altitude;pressure_sealevel;temperature;humidity
43312;BME280;30041;48.300;16.352;2022-08-21T00:01:58;99462.53;;;26.44;nan
43312;BME280;30041;48.300;16.352;2022-08-21T00:04:24;99475.00;;;26.45;nan
43312;BME280;30041;48.300;16.352;2022-08-21T00:06:51;99466.59;;;26.46;nan
43312;BME280;30041;48.300;16.352;2022-08-21T00:09:17;99461.97;;;26.47;nan
43312;BME280;30041;48.300;16.352;2022-08-21T00:11:43;99465.22;;;26.49;nan
43312;BME280;30041;48.300;16.352;2022-08-21T00:14:09;99461.69;;;26.48;nan
43312;BME280;30041;48.300;16.352;2022-08-21T00:16:36;99447.81;;;26.50;nan
43312;BME280;30041;48.300;16.352;2022-08-21T00:19:02;99454.91;;;26.51;nan
43312;BME280;30041;48.300;16.352;2022-08-21T00:21:28;99455.72;;;26.51;nan
43312;BME280;30041;48.300;16.352;2022-08-21T00:23:53;99451.91;;;26.53;nan
43312;BME280;30041;48.300;16.352;2022-08-21T00:26:19;99441.03;;;26.53;nan
43312;BME280;30041;48.300;16.352;2022-08-21T00:28:45;99439.41;;;26.51;nan
43312;BME280;30041;48.300;16.352;2022-08-21T00:31:10;99436.13;;;26.55;nan
43312;BME280;30041;48.300;16.352;2022-08-21T00:33:36;99438.84;;;26.55;nan
43312;BME280;30041;48.300;16.352;2022-08-21T00:36:02;99430.69;;;26.55;nan
43312;BME280;30041;48.300;16.352;2022-08-21T00:38:28;99431.56;;;26.55;nan
43312;BME280;30041;48.300;16.352;2022-08-21T00:40:57;99426.13;;;26.55;nan
43312;BME280;30041;48.300;16.352;2022-08-21T00:43:28;99426.13;;;26.55;nan
43312;BME280;30041;48.300;16.352;2022-08-21T00:45:54;99428.84;;;26.55;nan
43312;BME280;30041;48.300;16.352;2022-08-21T00:48:22;99437.53;;;26.57;nan
43312;BME280;30041;48.300;16.352;2022-08-21T00:51:03;99429.91;;;26.59;nan
43312;BME280;30041;48.300;16.352;2022-08-21T00:53:31;99427.69;;;26.61;nan
43312;BME280;30041;48.300;16.352;2022-08-21T00:55:57;99416.31;;;26.59;nan
43312;BME280;30041;48.300;16.352;2022-08-21T00:58:26;99423.09;;;26.62;nan
43312;BME280;30041;48.300;16.352;2022-08-21T01:00:52;99425.53;;;26.63;nan
43312;BME280;30041;48.300;16.352;2022-08-21T01:03:21;99428.53;;;26.62;nan
43312;BME280;30041;48.300;16.352;2022-08-21T01:05:47;99425.28;;;26.60;nan
43312;BME280;30041;48.300;16.352;2022-08-21T01:08:14;99420.63;;;26.65;nan
43312;BME280;30041;48.300;16.352;2022-08-21T01:10:43;99433.69;;;26.63;nan
43312;BME280;30041;48.300;16.352;2022-08-21T01:13:11;99414.66;;;26.63;nan
43312;BME280;30041;48.300;16.352;2022-08-21T01:15:42;99409.50;;;26.67;nan
43312;BME280;30041;48.300;16.352;2022-08-21T01:18:10;99417.38;;;26.68;nan
43312;BME280;30041;48.300;16.352;2022-08-21T01:20:38;99414.13;;;26.66;nan
43312;BME280;30041;48.300;16.352;2022-08-21T01:23:06;99417.09;;;26.65;nan
43312;BME280;30041;48.300;16.352;2022-08-21T01:25:33;99411.94;;;26.68;nan
43312;BME280;30041;48.300;16.352;2022-08-21T01:28:04;99407.56;;;26.67;nan
43312;BME280;30041;48.300;16.352;2022-08-21T01:30:33;99409.75;;;26.70;nan
43312;BME280;30041;48.300;16.352;2022-08-21T01:33:00;99409.22;;;26.68;nan
43312;BME280;30041;48.300;16.352;2022-08-21T01:35:25;99416.81;;;26.71;nan
43312;BME280;30041;48.300;16.352;2022-08-21T01:37:51;99410.28;;;26.73;nan
43312;BME280;30041;48.300;16.352;2022-08-21T01:40:17;99411.63;;;26.75;nan
43312;BME280;30041;48.300;16.352;2022-08-21T01:42:44;99410.53;;;26.76;nan
43312;BME280;30041;48.300;16.352;2022-08-21T01:45:11;99402.94;;;26.73;nan
43312;BME280;30041;48.300;16.352;2022-08-21T01:47:38;99407.28;;;26.74;nan
43312;BME280;30041;48.300;16.352;2022-08-21T01:50:10;99398.59;;;26.72;nan
43312;BME280;30041;48.300;16.352;2022-08-21T01:52:36;99416.53;;;26.73;nan
43312;BME280;30041;48.300;16.352;2022-08-21T01:55:03;99401.84;;;26.74;nan
43312;BME280;30041;48.300;16.352;2022-08-21T01:57:29;99403.75;;;26.74;nan
43312;BME280;30041;48.300;16.352;2022-08-21T01:59:55;99394.78;;;26.73;nan
43312;BME280;30041;48.300;16.352;2022-08-21T02:02:20;99395.59;;;26.74;nan
43312;BME280;30041;48.300;16.352;2022-08-21T02:04:49;99395.88;;;26.77;nan
43312;BME280;30041;48.300;16.352;2022-08-21T02:07:14;99386.88;;;26.77;nan
43312;BME280;30041;48.300;16.352;2022-08-21T02:09:40;99391.50;;;26.76;nan
43312;BME280;30041;48.300;16.352;2022-08-21T02:12:06;99398.59;;;26.77;nan
43312;BME280;30041;48.300;16.352;2022-08-21T02:14:31;99394.22;;;26.76;nan
43312;BME280;30041;48.300;16.352;2022-08-21T02:16:57;99385.53;;;26.79;nan
43312;BME280;30041;48.300;16.352;2022-08-21T02:19:22;99383.06;;;26.78;nan
43312;BME280;30041;48.300;16.352;2022-08-21T02:21:48;99377.06;;;26.81;nan
43312;BME280;30041;48.300;16.352;2022-08-21T02:24:13;99378.19;;;26.80;nan
43312;BME280;30041;48.300;16.352;2022-08-21T02:26:39;99383.31;;;26.81;nan
43312;BME280;30041;48.300;16.352;2022-08-21T02:29:04;99370.56;;;26.77;nan
43312;BME280;30041;48.300;16.352;2022-08-21T02:31:30;99382.25;;;26.82;nan
43312;BME280;30041;48.300;16.352;2022-08-21T02:33:56;99377.06;;;26.81;nan
43312;BME280;30041;48.300;16.352;2022-08-21T02:36:22;99377.88;;;26.81;nan
43312;BME280;30041;48.300;16.352;2022-08-21T02:38:47;99384.97;;;26.82;nan
43312;BME280;30041;48.300;16.352;2022-08-21T02:41:16;99377.06;;;26.81;nan
43312;BME280;30041;48.300;16.352;2022-08-21T02:43:42;99377.59;;;26.83;nan
43312;BME280;30041;48.300;16.352;2022-08-21T02:46:09;99381.97;;;26.84;nan
43312;BME280;30041;48.300;16.352;2022-08-21T02:48:36;99378.94;;;26.85;nan
43312;BME280;30041;48.300;16.352;2022-08-21T02:51:10;99375.97;;;26.87;nan
43312;BME280;30041;48.300;16.352;2022-08-21T02:53:43;99373.81;;;26.84;nan
43312;BME280;30041;48.300;16.352;2022-08-21T02:56:12;99378.69;;;26.87;nan
43312;BME280;30041;48.300;16.352;2022-08-21T02:58:45;99379.75;;;26.86;nan
43312;BME280;30041;48.300;16.352;2022-08-21T03:01:11;99386.03;;;26.86;nan
43312;BME280;30041;48.300;16.352;2022-08-21T03:03:38;99390.34;;;26.87;nan
43312;BME280;30041;48.300;16.352;2022-08-21T03:06:06;99378.13;;;26.85;nan
43312;BME280;30041;48.300;16.352;2022-08-21T03:08:31;99386.31;;;26.85;nan
43312;BME280;30041;48.300;16.352;2022-08-21T03:10:57;99375.41;;;26.85;nan
43312;BME280;30041;48.300;16.352;2022-08-21T03:13:23;99390.63;;;26.86;nan
43312;BME280;30041;48.300;16.352;2022-08-21T03:15:49;99390.34;;;26.87;nan
43312;BME280;30041;48.300;16.352;2022-08-21T03:18:15;99388.75;;;26.86;nan
43312;BME280;30041;48.300;16.352;2022-08-21T03:20:42;99380.81;;;26.90;nan
43312;BME280;30041;48.300;16.352;2022-08-21T03:23:08;99383.84;;;26.88;nan
43312;BME280;30041;48.300;16.352;2022-08-21T03:25:35;99385.19;;;26.91;nan
43312;BME280;30041;48.300;16.352;2022-08-21T03:28:02;99380.81;;;26.90;nan
43312;BME280;30041;48.300;16.352;2022-08-21T03:30:31;99377.31;;;26.89;nan
43312;BME280;30041;48.300;16.352;2022-08-21T03:33:00;99387.34;;;26.94;nan
43312;BME280;30041;48.300;16.352;2022-08-21T03:35:27;99379.72;;;26.96;nan
43312;BME280;30041;48.300;16.352;2022-08-21T03:37:53;99373.47;;;26.96;nan
43312;BME280;30041;48.300;16.352;2022-08-21T03:40:20;99369.63;;;26.97;nan
43312;BME280;30041;48.300;16.352;2022-08-21T03:42:46;99374.28;;;26.96;nan
43312;BME280;30041;48.300;16.352;2022-08-21T03:45:13;99386.78;;;26.97;nan
43312;BME280;30041;48.300;16.352;2022-08-21T03:47:39;99386.50;;;26.99;nan
43312;BME280;30041;48.300;16.352;2022-08-21T03:50:15;99383.25;;;26.97;nan
43312;BME280;30041;48.300;16.352;2022-08-21T03:52:40;99394.38;;;27.00;nan
43312;BME280;30041;48.300;16.352;2022-08-21T03:55:06;99390.00;;;26.99;nan
43312;BME280;30041;48.300;16.352;2022-08-21T03:57:32;99381.34;;;26.97;nan
43312;BME280;30041;48.300;16.352;2022-08-21T03:59:57;99387.88;;;26.96;nan
43312;BME280;30041;48.300;16.352;2022-08-21T04:02:23;99393.03;;;26.98;nan
43312;BME280;30041;48.300;16.352;2022-08-21T04:04:48;99396.84;;;26.97;nan
43312;BME280;30041;48.300;16.352;2022-08-21T04:07:14;99399.81;;;27.00;nan
43312;BME280;30041;48.300;16.352;2022-08-21T04:09:39;99394.66;;;26.99;nan
43312;BME280;30041;48.300;16.352;2022-08-21T04:12:05;99403.63;;;26.99;nan
43312;BME280;30041;48.300;16.352;2022-08-21T04:14:30;99406.63;;;26.98;nan
43312;BME280;30041;48.300;16.352;2022-08-21T04:16:56;99406.34;;;26.99;nan
43312;BME280;30041;48.300;16.352;2022-08-21T04:19:21;99408.25;;;26.99;nan
43312;BME280;30041;48.300;16.352;2022-08-21T04:21:47;99414.22;;;27.01;nan
43312;BME280;30041;48.300;16.352;2022-08-21T04:24:12;99414.00;;;26.97;nan
43312;BME280;30041;48.300;16.352;2022-08-21T04:26:39;99422.66;;;26.99;nan
43312;BME280;30041;48.300;16.352;2022-08-21T04:29:04;99418.59;;;27.02;nan
43312;BME280;30041;48.300;16.352;2022-08-21T04:31:34;99422.91;;;27.03;nan
43312;BME280;30041;48.300;16.352;2022-08-21T04:34:00;99410.44;;;27.02;nan
43312;BME280;30041;48.300;16.352;2022-08-21T04:36:26;99410.13;;;27.03;nan
43312;BME280;30041;48.300;16.352;2022-08-21T04:38:51;99410.44;;;27.02;nan
43312;BME280;30041;48.300;16.352;2022-08-21T04:41:17;99411.50;;;27.01;nan
43312;BME280;30041;48.300;16.352;2022-08-21T04:43:42;99405.78;;;27.02;nan
43312;BME280;30041;48.300;16.352;2022-08-21T04:46:08;99408.50;;;27.02;nan
43312;BME280;30041;48.300;16.352;2022-08-21T04:48:34;99416.66;;;27.02;nan
43312;BME280;30041;48.300;16.352;2022-08-21T04:53:34;99417.22;;;26.99;nan
43312;BME280;30041;48.300;16.352;2022-08-21T04:56:08;99416.13;;;27.00;nan
43312;BME280;30041;48.300;16.352;2022-08-21T04:58:37;99413.16;;;27.02;nan
43312;BME280;30041;48.300;16.352;2022-08-21T05:01:04;99403.06;;;27.02;nan
43312;BME280;30041;48.300;16.352;2022-08-21T05:03:33;99404.41;;;27.05;nan
43312;BME280;30041;48.300;16.352;2022-08-21T05:06:00;99424.84;;;27.02;nan
43312;BME280;30041;48.300;16.352;2022-08-21T05:08:26;99407.41;;;27.03;nan
43312;BME280;30041;48.300;16.352;2022-08-21T05:10:53;99412.03;;;27.03;nan
43312;BME280;30041;48.300;16.352;2022-08-21T05:13:19;99415.28;;;27.05;nan
43312;BME280;30041;48.300;16.352;2022-08-21T05:15:45;99416.09;;;27.05;nan
43312;BME280;30041;48.300;16.352;2022-08-21T05:18:11;99415.84;;;27.07;nan
43312;BME280;30041;48.300;16.352;2022-08-21T05:20:37;99416.38;;;27.09;nan
43312;BME280;30041;48.300;16.352;2022-08-21T05:23:13;99416.63;;;27.07;nan
43312;BME280;30041;48.300;16.352;2022-08-21T05:25:40;99415.56;;;27.08;nan
43312;BME280;30041;48.300;16.352;2022-08-21T05:28:05;99427.53;;;27.07;nan
43312;BME280;30041;48.300;16.352;2022-08-21T05:30:31;99424.00;;;27.07;nan
43312;BME280;30041;48.300;16.352;2022-08-21T05:32:59;99426.44;;;27.08;nan
43312;BME280;30041;48.300;16.352;2022-08-21T05:35:29;99433.22;;;27.11;nan
43312;BME280;30041;48.300;16.352;2022-08-21T05:37:56;99428.84;;;27.10;nan
43312;BME280;30041;48.300;16.352;2022-08-21T05:40:23;99425.06;;;27.11;nan
43312;BME280;30041;48.300;16.352;2022-08-21T05:42:53;99425.88;;;27.11;nan
43312;BME280;30041;48.300;16.352;2022-08-21T05:45:18;99428.59;;;27.11;nan
43312;BME280;30041;48.300;16.352;2022-08-21T05:47:44;99427.47;;;27.12;nan
43312;BME280;30041;48.300;16.352;2022-08-21T05:50:10;99434.56;;;27.13;nan
43312;BME280;30041;48.300;16.352;2022-08-21T05:52:35;99435.09;;;27.16;nan
43312;BME280;30041;48.300;16.352;2022-08-21T05:55:01;99436.47;;;27.13;nan
43312;BME280;30041;48.300;16.352;2022-08-21T05:57:26;99425.88;;;27.11;nan
43312;BME280;30041;48.300;16.352;2022-08-21T05:59:52;99438.09;;;27.14;nan
43312;BME280;30041;48.300;16.352;2022-08-21T06:02:19;99431.31;;;27.11;nan
43312;BME280;30041;48.300;16.352;2022-08-21T06:04:45;99435.63;;;27.12;nan
43312;BME280;30041;48.300;16.352;2022-08-21T06:07:10;99440.81;;;27.14;nan
43312;BME280;30041;48.300;16.352;2022-08-21T06:09:36;99442.44;;;27.15;nan
43312;BME280;30041;48.300;16.352;2022-08-21T06:12:06;99456.31;;;27.13;nan
43312;BME280;30041;48.300;16.352;2022-08-21T06:14:31;99451.69;;;27.14;nan
43312;BME280;30041;48.300;16.352;2022-08-21T06:17:09;99439.47;;;27.11;nan
43312;BME280;30041;48.300;16.352;2022-08-21T06:19:35;99446.25;;;27.14;nan
43312;BME280;30041;48.300;16.352;2022-08-21T06:22:01;99440.78;;;27.19;nan
43312;BME280;30041;48.300;16.352;2022-08-21T06:24:27;99439.16;;;27.18;nan
43312;BME280;30041;48.300;16.352;2022-08-21T06:26:53;99441.06;;;27.18;nan
43312;BME280;30041;48.300;16.352;2022-08-21T06:29:19;99446.19;;;26.54;nan
43312;BME280;30041;48.300;16.352;2022-08-21T06:31:45;99438.69;;;26.00;nan
43312;BME280;30041;48.300;16.352;2022-08-21T06:34:10;99448.94;;;25.46;nan
43312;BME280;30041;48.300;16.352;2022-08-21T06:36:36;99446.97;;;25.21;nan
43312;BME280;30041;48.300;16.352;2022-08-21T06:39:03;99452.06;;;25.13;nan
43312;BME280;30041;48.300;16.352;2022-08-21T06:41:28;99446.34;;;25.09;nan
43312;BME280;30041;48.300;16.352;2022-08-21T06:43:55;99449.63;;;25.11;nan
43312;BME280;30041;48.300;16.352;2022-08-21T06:46:22;99452.31;;;25.01;nan
43312;BME280;30041;48.300;16.352;2022-08-21T06:48:48;99460.56;;;24.74;nan
43312;BME280;30041;48.300;16.352;2022-08-21T06:51:14;99456.47;;;24.66;nan
43312;BME280;30041;48.300;16.352;2022-08-21T06:53:39;99466.44;;;24.55;nan
43312;BME280;30041;48.300;16.352;2022-08-21T06:56:05;99461.59;;;24.57;nan
43312;BME280;30041;48.300;16.352;2022-08-21T06:58:30;99455.34;;;24.52;nan
43312;BME280;30041;48.300;16.352;2022-08-21T07:00:56;99459.91;;;24.51;nan
43312;BME280;30041;48.300;16.352;2022-08-21T07:03:34;99460.19;;;24.50;nan
43312;BME280;30041;48.300;16.352;2022-08-21T07:05:59;99463.72;;;24.50;nan
43312;BME280;30041;48.300;16.352;2022-08-21T07:08:27;99459.03;;;24.45;nan
43312;BME280;30041;48.300;16.352;2022-08-21T07:10:55;99456.38;;;24.51;nan
43312;BME280;30041;48.300;16.352;2022-08-21T07:13:21;99460.41;;;24.43;nan
43312;BME280;30041;48.300;16.352;2022-08-21T07:15:47;99458.50;;;24.43;nan
43312;BME280;30041;48.300;16.352;2022-08-21T07:18:14;99459.13;;;24.56;nan
43312;BME280;30041;48.300;16.352;2022-08-21T07:20:40;99460.84;;;24.67;nan
43312;BME280;30041;48.300;16.352;2022-08-21T07:23:34;99474.09;;;24.63;nan
43312;BME280;30041;48.300;16.352;2022-08-21T07:26:00;99466.53;;;24.76;nan
43312;BME280;30041;48.300;16.352;2022-08-21T07:28:27;99478.47;;;24.70;nan
43312;BME280;30041;48.300;16.352;2022-08-21T07:30:54;99469.78;;;24.73;nan
43312;BME280;30041;48.300;16.352;2022-08-21T07:33:21;99473.34;;;24.78;nan
43312;BME280;30041;48.300;16.352;2022-08-21T07:35:47;99477.13;;;24.72;nan
43312;BME280;30041;48.300;16.352;2022-08-21T07:38:12;99481.03;;;24.49;nan
43312;BME280;30041;48.300;16.352;2022-08-21T07:40:38;99474.28;;;24.52;nan
43312;BME280;30041;48.300;16.352;2022-08-21T07:43:03;99466.41;;;24.50;nan
43312;BME280;30041;48.300;16.352;2022-08-21T07:45:29;99472.94;;;24.54;nan
43312;BME280;30041;48.300;16.352;2022-08-21T07:47:54;99463.81;;;24.71;nan
43312;BME280;30041;48.300;16.352;2022-08-21T07:50:20;99461.69;;;24.78;nan
43312;BME280;30041;48.300;16.352;2022-08-21T07:52:46;99468.22;;;24.87;nan
43312;BME280;30041;48.300;16.352;2022-08-21T07:55:15;99458.50;;;24.91;nan
43312;BME280;30041;48.300;16.352;2022-08-21T07:57:41;99456.06;;;24.90;nan
43312;BME280;30041;48.300;16.352;2022-08-21T08:00:10;99461.50;;;24.95;nan
43312;BME280;30041;48.300;16.352;2022-08-21T08:02:36;99465.56;;;24.97;nan
43312;BME280;30041;48.300;16.352;2022-08-21T08:05:04;99459.09;;;24.98;nan
43312;BME280;30041;48.300;16.352;2022-08-21T08:07:30;99458.81;;;25.05;nan
43312;BME280;30041;48.300;16.352;2022-08-21T08:09:56;99460.16;;;24.97;nan
43312;BME280;30041;48.300;16.352;2022-08-21T08:12:21;99456.88;;;25.00;nan
43312;BME280;30041;48.300;16.352;2022-08-21T08:14:47;99458.53;;;25.01;nan
43312;BME280;30041;48.300;16.352;2022-08-21T08:17:12;99458.00;;;25.04;nan
43312;BME280;30041;48.300;16.352;2022-08-21T08:19:38;99444.44;;;25.04;nan
43312;BME280;30041;48.300;16.352;2022-08-21T08:22:13;99448.25;;;25.09;nan
43312;BME280;30041;48.300;16.352;2022-08-21T08:24:39;99442.53;;;25.05;nan
43312;BME280;30041;48.300;16.352;2022-08-21T08:27:04;99452.81;;;24.98;nan
43312;BME280;30041;48.300;16.352;2022-08-21T08:29:30;99442.25;;;24.96;nan
43312;BME280;30041;48.300;16.352;2022-08-21T08:31:55;99439.00;;;24.99;nan
43312;BME280;30041;48.300;16.352;2022-08-21T08:34:21;99437.41;;;24.98;nan
43312;BME280;30041;48.300;16.352;2022-08-21T08:36:47;99446.09;;;25.05;nan
43312;BME280;30041;48.300;16.352;2022-08-21T08:39:12;99445.78;;;25.02;nan
43312;BME280;30041;48.300;16.352;2022-08-21T08:41:38;99445.25;;;25.00;nan
43312;BME280;30041;48.300;16.352;2022-08-21T08:44:08;99446.91;;;25.11;nan
43312;BME280;30041;48.300;16.352;2022-08-21T08:46:46;99455.03;;;25.01;nan
43312;BME280;30041;48.300;16.352;2022-08-21T08:51:51;99457.19;;;24.99;nan
43312;BME280;30041;48.300;16.352;2022-08-21T08:54:27;99461.50;;;25.05;nan
43312;BME280;30041;48.300;16.352;2022-08-21T08:56:54;99463.72;;;25.08;nan
43312;BME280;30041;48.300;16.352;2022-08-21T08:59:24;99461.50;;;25.05;nan
43312;BME280;30041;48.300;16.352;2022-08-21T09:01:51;99462.31;;;25.00;nan
43312;BME280;30041;48.300;16.352;2022-08-21T09:04:22;99464.22;;;25.00;nan
43312;BME280;30041;48.300;16.352;2022-08-21T09:07:03;99466.94;;;25.00;nan
43312;BME280;30041;48.300;16.352;2022-08-21T09:12:54;99465.03;;;25.00;nan
43312;BME280;30041;48.300;16.352;2022-08-21T09:15:42;99465.31;;;24.99;nan
43312;BME280;30041;48.300;16.352;2022-08-21T09:18:38;99468.03;;;25.04;nan
43312;BME280;30041;48.300;16.352;2022-08-21T09:21:35;99460.19;;;25.08;nan
43312;BME280;30041;48.300;16.352;2022-08-21T09:29:37;99459.34;;;25.02;nan
43312;BME280;30041;48.300;16.352;2022-08-21T09:32:16;99457.44;;;24.97;nan
43312;BME280;30041;48.300;16.352;2022-08-21T09:34:42;99453.66;;;25.03;nan
43312;BME280;30041;48.300;16.352;2022-08-21T09:37:17;99456.09;;;25.05;nan
43312;BME280;30041;48.300;16.352;2022-08-21T09:39:43;99453.63;;;24.93;nan
43312;BME280;30041;48.300;16.352;2022-08-21T09:42:20;99450.09;;;24.93;nan
43312;BME280;30041;48.300;16.352;2022-08-21T09:44:46;99452.03;;;25.02;nan
43312;BME280;30041;48.300;16.352;2022-08-21T09:47:12;99442.81;;;25.03;nan
43312;BME280;30041;48.300;16.352;2022-08-21T09:49:40;99437.41;;;25.03;nan
43312;BME280;30041;48.300;16.352;2022-08-21T09:52:21;99438.16;;;24.94;nan
43312;BME280;30041;48.300;16.352;2022-08-21T09:54:52;99435.19;;;24.95;nan
43312;BME280;30041;48.300;16.352;2022-08-21T09:57:25;99432.47;;;24.95;nan
43312;BME280;30041;48.300;16.352;2022-08-21T09:59:51;99439.00;;;24.94;nan
43312;BME280;30041;48.300;16.352;2022-08-21T10:02:32;99442.22;;;24.86;nan
43312;BME280;30041;48.300;16.352;2022-08-21T10:05:06;99433.84;;;24.93;nan
43312;BME280;30041;48.300;16.352;2022-08-21T10:07:32;99437.09;;;25.00;nan
43312;BME280;30041;48.300;16.352;2022-08-21T10:10:05;99439.56;;;25.01;nan
43312;BME280;30041;48.300;16.352;2022-08-21T10:15:13;99434.69;;;25.03;nan
43312;BME280;30041;48.300;16.352;2022-08-21T10:17:51;99431.44;;;25.01;nan
43312;BME280;30041;48.300;16.352;2022-08-21T10:21:04;99424.66;;;25.04;nan
43312;BME280;30041;48.300;16.352;2022-08-21T10:23:27;99440.09;;;24.98;nan
43312;BME280;30041;48.300;16.352;2022-08-21T10:26:35;99432.47;;;24.90;nan
43312;BME280;30041;48.300;16.352;2022-08-21T10:32:01;99439.00;;;24.99;nan
43312;BME280;30041;48.300;16.352;2022-08-21T10:34:53;99444.97;;;25.01;nan
43312;BME280;30041;48.300;16.352;2022-08-21T10:37:39;99440.91;;;24.99;nan
43312;BME280;30041;48.300;16.352;2022-08-21T10:40:48;99441.72;;;24.99;nan
43312;BME280;30041;48.300;16.352;2022-08-21T10:46:03;99437.41;;;24.98;nan
43312;BME280;30041;48.300;16.352;2022-08-21T10:48:36;99435.19;;;25.00;nan
43312;BME280;30041;48.300;16.352;2022-08-21T10:51:25;99443.34;;;25.00;nan
43312;BME280;30041;48.300;16.352;2022-08-21T10:53:58;99448.25;;;25.03;nan
43312;BME280;30041;48.300;16.352;2022-08-21T10:56:29;99447.69;;;24.96;nan
43312;BME280;30041;48.300;16.352;2022-08-21T10:59:24;99440.34;;;24.92;nan
43312;BME280;30041;48.300;16.352;2022-08-21T11:07:02;99428.41;;;24.93;nan
43312;BME280;30041;48.300;16.352;2022-08-21T11:09:30;99420.56;;;24.96;nan
43312;BME280;30041;48.300;16.352;2022-08-21T11:12:05;99430.63;;;25.01;nan
43312;BME280;30041;48.300;16.352;2022-08-21T11:14:39;99432.19;;;24.86;nan
43312;BME280;30041;48.300;16.352;2022-08-21T11:17:12;99426.25;;;24.95;nan
43312;BME280;30041;48.300;16.352;2022-08-21T11:19:41;99427.06;;;24.95;nan
43312;BME280;30041;48.300;16.352;2022-08-21T11:22:15;99423.53;;;24.95;nan
43312;BME280;30041;48.300;16.352;2022-08-21T11:25:13;99425.72;;;24.98;nan
43312;BME280;30041;48.300;16.352;2022-08-21T11:27:50;99419.78;;;25.01;nan
43312;BME280;30041;48.300;16.352;2022-08-21T11:30:17;99420.59;;;25.01;nan
43312;BME280;30041;48.300;16.352;2022-08-21T11:35:57;99425.94;;;24.86;nan
43312;BME280;30041;48.300;16.352;2022-08-21T11:41:29;99425.97;;;24.91;nan
43312;BME280;30041;48.300;16.352;2022-08-21T11:50:18;99428.16;;;24.94;nan
43312;BME280;30041;48.300;16.352;2022-08-21T11:53:18;99428.16;;;24.94;nan
43312;BME280;30041;48.300;16.352;2022-08-21T11:55:52;99422.19;;;24.97;nan
43312;BME280;30041;48.300;16.352;2022-08-21T11:58:24;99428.16;;;25.04;nan
43312;BME280;30041;48.300;16.352;2022-08-21T12:00:55;99420.88;;;25.10;nan
43312;BME280;30041;48.300;16.352;2022-08-21T12:03:32;99414.91;;;25.18;nan
43312;BME280;30041;48.300;16.352;2022-08-21T12:05:59;99427.19;;;25.26;nan
43312;BME280;30041;48.300;16.352;2022-08-21T12:08:30;99423.66;;;25.25;nan
43312;BME280;30041;48.300;16.352;2022-08-21T12:11:00;99431.81;;;25.31;nan
43312;BME280;30041;48.300;16.352;2022-08-21T12:13:28;99426.13;;;25.32;nan
43312;BME280;30041;48.300;16.352;2022-08-21T12:16:08;99440.75;;;25.36;nan
43312;BME280;30041;48.300;16.352;2022-08-21T12:18:35;99438.88;;;25.37;nan
43312;BME280;30041;48.300;16.352;2022-08-21T12:24:15;99447.03;;;25.37;nan
43312;BME280;30041;48.300;16.352;2022-08-21T12:29:16;99443.47;;;25.36;nan
43312;BME280;30041;48.300;16.352;2022-08-21T12:31:52;99451.91;;;25.35;nan
43312;BME280;30041;48.300;16.352;2022-08-21T12:34:20;99444.56;;;25.35;nan
43312;BME280;30041;48.300;16.352;2022-08-21T12:36:53;99454.06;;;25.38;nan
43312;BME280;30041;48.300;16.352;2022-08-21T12:39:25;99455.41;;;25.35;nan
43312;BME280;30041;48.300;16.352;2022-08-21T12:41:57;99450.53;;;25.37;nan
43312;BME280;30041;48.300;16.352;2022-08-21T12:44:39;99441.84;;;25.35;nan
43312;BME280;30041;48.300;16.352;2022-08-21T12:47:14;99441.84;;;25.35;nan
43312;BME280;30041;48.300;16.352;2022-08-21T12:49:58;99447.53;;;25.34;nan
43312;BME280;30041;48.300;16.352;2022-08-21T12:52:30;99447.81;;;25.32;nan
43312;BME280;30041;48.300;16.352;2022-08-21T12:54:55;99445.13;;;25.37;nan
43312;BME280;30041;48.300;16.352;2022-08-21T12:57:25;99435.63;;;25.40;nan
43312;BME280;30041;48.300;16.352;2022-08-21T13:00:12;99433.72;;;25.40;nan
43312;BME280;30041;48.300;16.352;2022-08-21T13:02:42;99439.69;;;25.42;nan
43312;BME280;30041;48.300;16.352;2022-08-21T13:05:13;99435.34;;;25.41;nan
43312;BME280;30041;48.300;16.352;2022-08-21T13:07:44;99432.34;;;25.43;nan
43312;BME280;30041;48.300;16.352;2022-08-21T13:10:39;99428.03;;;25.42;nan
43312;BME280;30041;48.300;16.352;2022-08-21T13:13:06;99435.63;;;25.45;nan
43312;BME280;30041;48.300;16.352;2022-08-21T13:15:35;99433.75;;;25.45;nan
43312;BME280;30041;48.300;16.352;2022-08-21T13:18:03;99434.81;;;25.44;nan
43312;BME280;30041;48.300;16.352;2022-08-21T13:20:34;99445.66;;;25.50;nan
43312;BME280;30041;48.300;16.352;2022-08-21T13:23:29;99444.84;;;25.49;nan
43312;BME280;30041;48.300;16.352;2022-08-21T13:25:54;99449.47;;;25.54;nan
43312;BME280;30041;48.300;16.352;2022-08-21T13:28:21;99442.69;;;25.56;nan
43312;BME280;30041;48.300;16.352;2022-08-21T13:30:49;99448.94;;;25.57;nan
43312;BME280;30041;48.300;16.352;2022-08-21T13:33:16;99447.84;;;25.58;nan
43312;BME280;30041;48.300;16.352;2022-08-21T13:36:04;99447.31;;;25.51;nan
43312;BME280;30041;48.300;16.352;2022-08-21T13:38:34;99439.16;;;25.56;nan
43312;BME280;30041;48.300;16.352;2022-08-21T13:43:46;99437.56;;;25.55;nan
43312;BME280;30041;48.300;16.352;2022-08-21T13:46:13;99432.13;;;25.55;nan
43312;BME280;30041;48.300;16.352;2022-08-21T13:48:39;99432.38;;;25.53;nan
43312;BME280;30041;48.300;16.352;2022-08-21T13:51:05;99443.53;;;25.57;nan
43312;BME280;30041;48.300;16.352;2022-08-21T13:53:34;99436.47;;;25.61;nan
43312;BME280;30041;48.300;16.352;2022-08-21T13:56:01;99432.13;;;25.55;nan
43312;BME280;30041;48.300;16.352;2022-08-21T13:58:29;99429.66;;;25.53;nan
43312;BME280;30041;48.300;16.352;2022-08-21T14:00:56;99439.19;;;25.61;nan
43312;BME280;30041;48.300;16.352;2022-08-21T14:03:42;99442.44;;;25.58;nan
43312;BME280;30041;48.300;16.352;2022-08-21T14:06:20;99446.22;;;25.62;nan
43312;BME280;30041;48.300;16.352;2022-08-21T14:08:59;99441.34;;;25.64;nan
43312;BME280;30041;48.300;16.352;2022-08-21T14:11:27;99437.00;;;25.63;nan